createdAt,value
2023-05-14T00:00:55.299Z,3463.00
2023-05-14T00:01:56.342Z,3494.00
2023-05-14T00:02:56.652Z,3488.00
2023-05-14T00:03:56.532Z,3440.00
2023-05-14T00:04:56.423Z,3455.00
2023-05-14T00:05:56.426Z,3429.00
2023-05-14T00:06:55.480Z,3332.00
2023-05-14T00:07:56.526Z,3236.00
2023-05-14T00:08:55.570Z,3251.00
2023-05-14T00:09:55.584Z,3292.00
2023-05-14T00:10:56.600Z,3287.00
2023-05-14T00:11:55.623Z,3218.00
2023-05-14T00:12:55.617Z,3272.00
2023-05-14T00:13:55.644Z,3340.00
2023-05-14T00:14:55.739Z,3423.00
2023-05-14T00:15:56.736Z,3512.00
2023-05-14T00:16:56.732Z,3606.00
2023-05-14T00:17:56.822Z,3595.00
2023-05-14T00:18:56.804Z,3661.00
2023-05-14T00:19:56.838Z,3695.00
2023-05-14T00:20:56.901Z,3718.00
2023-05-14T00:21:55.887Z,3701.00
2023-05-14T00:22:55.936Z,3687.00
2023-05-14T00:23:56.993Z,3661.00
2023-05-14T00:24:56.006Z,3669.00
2023-05-14T00:25:57.042Z,3736.00
2023-05-14T00:26:57.110Z,3788.00
2023-05-14T00:27:57.126Z,3849.00
2023-05-14T00:28:57.142Z,3888.00
2023-05-14T00:29:57.208Z,3947.00
2023-05-14T00:30:57.321Z,4011.00
2023-05-14T00:31:56.383Z,4025.00
2023-05-14T00:32:56.352Z,4025.00
2023-05-14T00:33:57.362Z,4046.00
2023-05-14T00:34:57.418Z,4038.00
2023-05-14T00:35:56.450Z,4051.00
2023-05-14T00:36:57.473Z,4034.00
2023-05-14T00:37:57.591Z,4044.00
2023-05-14T00:38:57.552Z,4032.00
2023-05-14T00:39:57.595Z,3996.00
2023-05-14T00:40:57.638Z,3982.00
2023-05-14T00:41:57.705Z,3981.00
2023-05-14T00:42:56.722Z,4006.00
2023-05-14T00:43:57.761Z,3957.00
2023-05-14T00:44:56.742Z,3974.00
2023-05-14T00:45:57.768Z,3957.00
2023-05-14T00:46:56.849Z,3923.00
2023-05-14T00:47:57.878Z,3912.00
2023-05-14T00:48:57.882Z,3910.00
2023-05-14T00:49:57.925Z,3920.00
2023-05-14T00:50:56.941Z,3950.00
2023-05-14T00:51:57.968Z,4071.00
2023-05-14T00:52:57.990Z,4139.00
2023-05-14T00:53:58.032Z,4175.00
2023-05-14T00:54:57.118Z,4153.00
2023-05-14T00:55:57.079Z,4149.00
2023-05-14T00:56:58.111Z,4138.00
2023-05-14T00:57:58.125Z,4109.00
2023-05-14T00:58:57.166Z,4111.00
2023-05-14T00:59:57.201Z,4097.00
2023-05-14T01:00:57.260Z,4082.00
2023-05-14T01:01:58.228Z,4031.00
2023-05-14T01:02:57.305Z,3971.00
2023-05-14T01:03:57.516Z,3894.00
2023-05-14T01:04:58.298Z,3892.00
2023-05-14T01:05:57.290Z,3917.00
2023-05-14T01:06:58.381Z,4016.00
2023-05-14T01:07:57.358Z,4073.00
2023-05-14T01:08:57.379Z,4110.00
2023-05-14T01:09:57.432Z,4141.00
2023-05-14T01:10:57.455Z,4208.00
2023-05-14T01:11:57.493Z,4226.00
2023-05-14T01:12:58.567Z,4238.00
2023-05-14T01:13:58.585Z,4258.00
2023-05-14T01:14:57.674Z,4214.00
2023-05-14T01:15:57.758Z,4206.00
2023-05-14T01:16:58.822Z,4168.00
2023-05-14T01:17:57.868Z,4140.00
2023-05-14T01:18:57.945Z,4172.00
2023-05-14T01:19:58.914Z,4113.00
2023-05-14T01:20:57.975Z,4062.00
2023-05-14T01:21:59.049Z,3994.00
2023-05-14T01:22:59.075Z,3978.00
2023-05-14T01:23:59.120Z,3937.00
2023-05-14T01:24:59.206Z,3845.00
2023-05-14T01:25:58.221Z,3724.00
2023-05-14T01:26:59.259Z,3710.00
2023-05-14T01:27:59.327Z,3653.00
2023-05-14T01:28:58.364Z,3615.00
2023-05-14T01:29:58.442Z,3649.00
2023-05-14T01:30:58.493Z,3725.00
2023-05-14T01:31:59.558Z,3827.00
2023-05-14T01:32:58.627Z,3894.00
2023-05-14T01:33:59.597Z,3872.00
2023-05-14T01:34:59.659Z,3835.00
2023-05-14T01:35:58.837Z,3813.00
2023-05-14T01:36:58.764Z,3809.00
2023-05-14T01:37:59.816Z,3770.00
2023-05-14T01:38:59.809Z,3652.00
2023-05-14T01:39:59.818Z,3524.00
2023-05-14T01:40:58.824Z,3403.00
2023-05-14T01:41:59.859Z,3308.00
2023-05-14T01:42:59.882Z,3241.00
2023-05-14T01:43:58.825Z,3205.00
2023-05-14T01:44:59.857Z,3167.00
2023-05-14T01:45:59.911Z,3120.00
2023-05-14T01:46:58.872Z,3069.00
2023-05-14T01:47:59.930Z,3105.00
2023-05-14T01:48:58.878Z,3082.00
2023-05-14T01:49:59.932Z,3072.00
2023-05-14T01:50:59.931Z,3081.00
2023-05-14T01:51:58.918Z,3091.00
2023-05-14T01:53:00.000Z,3051.00
2023-05-14T01:53:59.926Z,3034.00
2023-05-14T01:54:59.928Z,3049.00
2023-05-14T01:55:59.936Z,3057.00
2023-05-14T01:56:59.946Z,3064.00
2023-05-14T01:57:59.983Z,3057.00
2023-05-14T01:58:58.941Z,3028.00
2023-05-14T01:59:58.957Z,3042.00
2023-05-14T02:00:59.028Z,3073.00
2023-05-14T02:02:00.052Z,3079.00
2023-05-14T02:03:00.131Z,3071.00
2023-05-14T02:04:00.181Z,3081.00
2023-05-14T02:04:59.042Z,3079.00
2023-05-14T02:06:00.111Z,3079.00
2023-05-14T02:07:00.126Z,3066.00
2023-05-14T02:07:59.125Z,3081.00
2023-05-14T02:09:00.157Z,3093.00
2023-05-14T02:10:00.188Z,3054.00
2023-05-14T02:11:00.162Z,3058.00
2023-05-14T02:12:00.226Z,3041.00
2023-05-14T02:12:59.217Z,3059.00
2023-05-14T02:13:59.228Z,3044.00
2023-05-14T02:15:00.218Z,3065.00
2023-05-14T02:16:00.319Z,3052.00
2023-05-14T02:17:00.237Z,3037.00
2023-05-14T02:17:59.228Z,3021.00
2023-05-14T02:18:59.285Z,3000.00
2023-05-14T02:19:59.230Z,2981.00
2023-05-14T02:21:00.254Z,2982.00
2023-05-14T02:22:00.270Z,2953.00
2023-05-14T02:23:00.323Z,2920.00
2023-05-14T02:24:00.296Z,2939.00
2023-05-14T02:24:59.312Z,2900.00
2023-05-14T02:26:00.314Z,2879.00
2023-05-14T02:27:00.343Z,2916.00
2023-05-14T02:28:00.370Z,2912.00
2023-05-14T02:29:00.351Z,2899.00
2023-05-14T02:30:00.364Z,2904.00
2023-05-14T02:30:59.407Z,2898.00
2023-05-14T02:31:59.373Z,2876.00
2023-05-14T02:32:59.455Z,2848.00
2023-05-14T02:34:00.440Z,2806.00
2023-05-14T02:35:00.416Z,2787.00
2023-05-14T02:35:59.426Z,2788.00
2023-05-14T02:36:59.439Z,2783.00
2023-05-14T02:37:59.438Z,2759.00
2023-05-14T02:38:59.441Z,2764.00
2023-05-14T02:39:59.471Z,2743.00
2023-05-14T02:41:00.462Z,2746.00
2023-05-14T02:41:59.447Z,2767.00
2023-05-14T02:43:00.475Z,2779.00
2023-05-14T02:43:59.459Z,2737.00
2023-05-14T02:44:59.469Z,2724.00
2023-05-14T02:46:00.538Z,2744.00
2023-05-14T02:46:59.572Z,2742.00
2023-05-14T02:47:59.470Z,2741.00
2023-05-14T02:49:00.505Z,2738.00
2023-05-14T02:50:00.557Z,2766.00
2023-05-14T02:50:59.566Z,2735.00
2023-05-14T02:52:00.575Z,2741.00
2023-05-14T02:53:00.631Z,2758.00
2023-05-14T02:54:00.639Z,2734.00
2023-05-14T02:55:00.660Z,2744.00
2023-05-14T02:56:00.687Z,2695.00
2023-05-14T02:56:59.665Z,2714.00
2023-05-14T02:58:00.739Z,2772.00
2023-05-14T02:59:00.706Z,2786.00
2023-05-14T03:00:00.703Z,2803.00
2023-05-14T03:00:59.735Z,2783.00
2023-05-14T03:02:00.727Z,2698.00
2023-05-14T03:03:00.753Z,2723.00
2023-05-14T03:03:59.756Z,2715.00
2023-05-14T03:04:59.740Z,2652.00
2023-05-14T03:05:59.753Z,2647.00
2023-05-14T03:07:00.772Z,2662.00
2023-05-14T03:07:59.749Z,2678.00
2023-05-14T03:08:59.761Z,2660.00
2023-05-14T03:09:59.815Z,2716.00
2023-05-14T03:10:59.791Z,2785.00
2023-05-14T03:12:00.796Z,2863.00
2023-05-14T03:12:59.798Z,2851.00
2023-05-14T03:13:59.811Z,2865.00
2023-05-14T03:14:59.855Z,2857.00
2023-05-14T03:15:59.889Z,2909.00
2023-05-14T03:17:00.944Z,2964.00
2023-05-14T03:17:59.954Z,3071.00
2023-05-14T03:19:00.917Z,3207.00
2023-05-14T03:19:59.939Z,3337.00
2023-05-14T03:21:00.920Z,3338.00
2023-05-14T03:22:00.958Z,3302.00
2023-05-14T03:22:59.949Z,3229.00
2023-05-14T03:24:00.974Z,3194.00
2023-05-14T03:24:59.956Z,3259.00
2023-05-14T03:26:00.970Z,3303.00
2023-05-14T03:26:59.962Z,3342.00
2023-05-14T03:28:00.972Z,3286.00
2023-05-14T03:29:00.005Z,3157.00
2023-05-14T03:30:00.982Z,3166.00
2023-05-14T03:31:00.016Z,3165.00
2023-05-14T03:31:59.997Z,3134.00
2023-05-14T03:33:00.121Z,3053.00
2023-05-14T03:34:00.012Z,3029.00
2023-05-14T03:35:01.074Z,2998.00
2023-05-14T03:36:00.041Z,2999.00
2023-05-14T03:37:01.050Z,2951.00
2023-05-14T03:38:00.073Z,2937.00
2023-05-14T03:39:00.065Z,2910.00
2023-05-14T03:40:00.070Z,2821.00
2023-05-14T03:41:01.149Z,2823.00
2023-05-14T03:42:01.092Z,2848.00
2023-05-14T03:43:01.109Z,2817.00
2023-05-14T03:44:01.100Z,2803.00
2023-05-14T03:45:01.125Z,2796.00
2023-05-14T03:46:01.133Z,2825.00
2023-05-14T03:47:01.206Z,2826.00
2023-05-14T03:48:00.279Z,2852.00
2023-05-14T03:49:00.224Z,2862.00
2023-05-14T03:50:00.236Z,2864.00
2023-05-14T03:51:01.261Z,2846.00
2023-05-14T03:52:00.249Z,2866.00
2023-05-14T03:53:01.316Z,2896.00
2023-05-14T03:54:01.287Z,2892.00
2023-05-14T03:55:01.302Z,2906.00
2023-05-14T03:56:00.281Z,2925.00
2023-05-14T03:57:01.311Z,2945.00
2023-05-14T03:58:01.331Z,2961.00
2023-05-14T03:59:00.366Z,2986.00
2023-05-14T04:00:01.396Z,3063.00
2023-05-14T04:01:00.412Z,3154.00
2023-05-14T04:02:01.413Z,3234.00
2023-05-14T04:03:01.464Z,3294.00
2023-05-14T04:04:00.645Z,3342.00
2023-05-14T04:05:01.501Z,3365.00
2023-05-14T04:06:01.474Z,3306.00
2023-05-14T04:07:01.478Z,3310.00
2023-05-14T04:08:00.453Z,3300.00
2023-05-14T04:09:01.500Z,3276.00
2023-05-14T04:10:03.359Z,3264.00
2023-05-14T04:11:00.527Z,3228.00
2023-05-14T04:12:00.562Z,3169.00
2023-05-14T04:13:00.467Z,3114.00
2023-05-14T04:14:00.485Z,3074.00
2023-05-14T04:15:00.445Z,3078.00
2023-05-14T04:16:01.512Z,3094.00
2023-05-14T04:17:01.483Z,3105.00
2023-05-14T04:18:00.460Z,2997.00
2023-05-14T04:19:01.478Z,2982.00
2023-05-14T04:20:01.428Z,2941.00
2023-05-14T04:21:01.414Z,2924.00
2023-05-14T04:22:01.413Z,2940.00
2023-05-14T04:23:00.432Z,2917.00
2023-05-14T04:24:01.399Z,2886.00
2023-05-14T04:25:01.394Z,2891.00
2023-05-14T04:26:01.388Z,2914.00
2023-05-14T04:27:01.408Z,2886.00
2023-05-14T04:28:00.394Z,2891.00
2023-05-14T04:29:01.386Z,2896.00
2023-05-14T04:30:01.336Z,2868.00
2023-05-14T04:31:00.347Z,2902.00
2023-05-14T04:32:01.461Z,2933.00
2023-05-14T04:33:01.418Z,2915.00
2023-05-14T04:34:01.315Z,2941.00
2023-05-14T04:35:01.357Z,2940.00
2023-05-14T04:36:00.310Z,2928.00
2023-05-14T04:37:00.288Z,2912.00
2023-05-14T04:38:00.280Z,2910.00
2023-05-14T04:39:01.301Z,2970.00
2023-05-14T04:40:01.269Z,2941.00
2023-05-14T04:41:01.302Z,2965.00
2023-05-14T04:42:01.269Z,2956.00
2023-05-14T04:43:01.274Z,2999.00
2023-05-14T04:44:01.243Z,3044.00
2023-05-14T04:45:01.242Z,3064.00
2023-05-14T04:46:01.247Z,3115.00
2023-05-14T04:47:01.267Z,3168.00
2023-05-14T04:48:00.383Z,3278.00
2023-05-14T04:49:01.189Z,3497.00
2023-05-14T04:50:00.376Z,3627.00
2023-05-14T04:51:01.184Z,3634.00
2023-05-14T04:52:01.194Z,3640.00
2023-05-14T04:53:01.211Z,3680.00
2023-05-14T04:54:00.248Z,3695.00
2023-05-14T04:55:01.188Z,3726.00
2023-05-14T04:56:01.161Z,3926.00
2023-05-14T04:57:01.154Z,4060.00
2023-05-14T04:58:00.148Z,4094.00
2023-05-14T04:59:01.177Z,4123.00
2023-05-14T05:00:01.186Z,4157.00
2023-05-14T05:01:01.180Z,4179.00
2023-05-14T05:02:01.249Z,4188.00
2023-05-14T05:03:01.346Z,4175.00
2023-05-14T05:04:01.381Z,4223.00
2023-05-14T05:05:01.360Z,4232.00
2023-05-14T05:06:01.361Z,4231.00
2023-05-14T05:07:00.487Z,4322.00
2023-05-14T05:08:01.404Z,4352.00
2023-05-14T05:09:01.967Z,4361.00
2023-05-14T05:10:01.468Z,4359.00
2023-05-14T05:11:01.495Z,4324.00
2023-05-14T05:12:01.507Z,4296.00
2023-05-14T05:13:01.491Z,4295.00
2023-05-14T05:14:00.610Z,4272.00
2023-05-14T05:15:00.597Z,4261.00
2023-05-14T05:16:00.731Z,4228.00
2023-05-14T05:17:00.667Z,4121.00
2023-05-14T05:18:01.750Z,4032.00
2023-05-14T05:19:00.837Z,4038.00
2023-05-14T05:20:01.741Z,3982.00
2023-05-14T05:21:00.765Z,3984.00
2023-05-14T05:22:00.766Z,3909.00
2023-05-14T05:23:01.893Z,3871.00
2023-05-14T05:24:00.905Z,3874.00
2023-05-14T05:25:01.920Z,3938.00
2023-05-14T05:26:01.985Z,4080.00
2023-05-14T05:27:02.057Z,4114.00
2023-05-14T05:28:01.042Z,4030.00
2023-05-14T05:29:01.100Z,4024.00
2023-05-14T05:30:02.227Z,3937.00
2023-05-14T05:31:01.207Z,3783.00
2023-05-14T05:32:01.248Z,3709.00
2023-05-14T05:33:02.356Z,3618.00
2023-05-14T05:34:01.363Z,3585.00
2023-05-14T05:35:01.399Z,3501.00
2023-05-14T05:36:02.498Z,3402.00
2023-05-14T05:37:02.495Z,3362.00
2023-05-14T05:38:01.940Z,3378.00
2023-05-14T05:39:02.579Z,3326.00
2023-05-14T05:40:01.639Z,3308.00
2023-05-14T05:41:01.693Z,3233.00
2023-05-14T05:42:01.758Z,3189.00
2023-05-14T05:43:02.772Z,3188.00
2023-05-14T05:44:01.840Z,3057.00
2023-05-14T05:45:02.903Z,3030.00
2023-05-14T05:46:02.938Z,3073.00
2023-05-14T05:47:01.953Z,3110.00
2023-05-14T05:48:03.043Z,3149.00
2023-05-14T05:49:02.957Z,3073.00
2023-05-14T05:50:02.005Z,3102.00
2023-05-14T05:51:03.046Z,3175.00
2023-05-14T05:52:03.064Z,3218.00
2023-05-14T05:53:03.132Z,3273.00
2023-05-14T05:54:03.116Z,3338.00
2023-05-14T05:55:03.118Z,3394.00
2023-05-14T05:56:03.135Z,3450.00
2023-05-14T05:57:02.145Z,3557.00
2023-05-14T05:58:02.204Z,3637.00
2023-05-14T05:59:03.201Z,3595.00
2023-05-14T06:00:03.200Z,3602.00
2023-05-14T06:01:03.197Z,3598.00
2023-05-14T06:02:03.287Z,3636.00
2023-05-14T06:03:03.239Z,3634.00
2023-05-14T06:04:02.254Z,3654.00
2023-05-14T06:05:03.264Z,3643.00
2023-05-14T06:06:02.270Z,3704.00
2023-05-14T06:07:03.261Z,3685.00
2023-05-14T06:08:02.292Z,3699.00
2023-05-14T06:09:03.330Z,3696.00
2023-05-14T06:10:02.337Z,3654.00
2023-05-14T06:11:02.320Z,3645.00
2023-05-14T06:12:03.372Z,3681.00
2023-05-14T06:13:03.360Z,3707.00
2023-05-14T06:14:03.377Z,3651.00
2023-05-14T06:15:03.445Z,3596.00
2023-05-14T06:16:02.594Z,3610.00
2023-05-14T06:17:03.539Z,3614.00
2023-05-14T06:18:03.629Z,3538.00
2023-05-14T06:19:03.614Z,3425.00
2023-05-14T06:20:02.603Z,3429.00
2023-05-14T06:21:03.679Z,3429.00
2023-05-14T06:22:03.717Z,3482.00
2023-05-14T06:23:03.695Z,3483.00
2023-05-14T06:24:03.725Z,3493.00
2023-05-14T06:25:03.779Z,3402.00
2023-05-14T06:26:03.776Z,3355.00
2023-05-14T06:27:03.818Z,3297.00
2023-05-14T06:28:03.905Z,3166.00
2023-05-14T06:29:03.915Z,3166.00
2023-05-14T06:30:02.946Z,3090.00
2023-05-14T06:31:02.979Z,3092.00
2023-05-14T06:32:03.074Z,3157.00
2023-05-14T06:33:04.167Z,3128.00
2023-05-14T06:34:04.118Z,3105.00
2023-05-14T06:35:03.104Z,3096.00
2023-05-14T06:36:03.114Z,3167.00
2023-05-14T06:37:03.138Z,3171.00
2023-05-14T06:38:04.187Z,3140.00
2023-05-14T06:39:04.250Z,3160.00
2023-05-14T06:40:03.241Z,3183.00
2023-05-14T06:41:03.228Z,3164.00
2023-05-14T06:42:03.243Z,3143.00
2023-05-14T06:43:04.272Z,3137.00
2023-05-14T06:44:04.283Z,3159.00
2023-05-14T06:45:04.324Z,3162.00
2023-05-14T06:46:04.341Z,3079.00
2023-05-14T06:47:04.371Z,3055.00
2023-05-14T06:48:03.492Z,3045.00
2023-05-14T06:49:03.465Z,3021.00
2023-05-14T06:50:04.511Z,2932.00
2023-05-14T06:51:03.458Z,2943.00
2023-05-14T06:52:03.534Z,2942.00
2023-05-14T06:53:04.479Z,2925.00
2023-05-14T06:54:04.528Z,2868.00
2023-05-14T06:55:03.518Z,2764.00
2023-05-14T06:56:03.507Z,2834.00
2023-05-14T06:57:04.570Z,2937.00
2023-05-14T06:58:04.627Z,3057.00
2023-05-14T06:59:03.623Z,3081.00
2023-05-14T07:00:04.020Z,3049.00
2023-05-14T07:01:04.716Z,2846.00
2023-05-14T07:02:04.738Z,2788.00
2023-05-14T07:03:03.783Z,2852.00
2023-05-14T07:04:04.826Z,2751.00
2023-05-14T07:05:03.730Z,2722.00
2023-05-14T07:06:04.749Z,2637.00
2023-05-14T07:07:03.756Z,2540.00
2023-05-14T07:08:04.806Z,2410.00
2023-05-14T07:09:03.857Z,2366.00
2023-05-14T07:10:03.958Z,2294.00
2023-05-14T07:11:04.979Z,2302.00
2023-05-14T07:12:04.033Z,2353.00
2023-05-14T07:13:05.155Z,2396.00
2023-05-14T07:14:05.130Z,2427.00
2023-05-14T07:15:05.181Z,2456.00
2023-05-14T07:16:05.263Z,2496.00
2023-05-14T07:17:05.267Z,2456.00
2023-05-14T07:18:05.326Z,2356.00
2023-05-14T07:19:05.380Z,2339.00
2023-05-14T07:20:05.383Z,2380.00
2023-05-14T07:21:05.474Z,2420.00
2023-05-14T07:22:04.474Z,2305.00
2023-05-14T07:23:04.493Z,2194.00
2023-05-14T07:24:05.524Z,2221.00
2023-05-14T07:25:05.539Z,2071.00
2023-05-14T07:26:05.613Z,2186.00
2023-05-14T07:27:05.662Z,2317.00
2023-05-14T07:28:04.692Z,2414.00
2023-05-14T07:29:05.740Z,2451.00
2023-05-14T07:30:05.789Z,2433.00
2023-05-14T07:31:04.876Z,2376.00
2023-05-14T07:32:04.878Z,2406.00
2023-05-14T07:33:04.998Z,2445.00
2023-05-14T07:34:04.937Z,2472.00
2023-05-14T07:35:05.990Z,2421.00
2023-05-14T07:36:05.984Z,2274.00
2023-05-14T07:37:06.051Z,2170.00
2023-05-14T07:38:06.131Z,2183.00
2023-05-14T07:39:05.114Z,2210.00
2023-05-14T07:40:05.223Z,2154.00
2023-05-14T07:41:06.169Z,2140.00
2023-05-14T07:42:06.211Z,2261.00
2023-05-14T07:43:05.226Z,2439.00
2023-05-14T07:44:06.254Z,2374.00
2023-05-14T07:45:05.273Z,2283.00
2023-05-14T07:46:06.290Z,2332.00
2023-05-14T07:47:05.374Z,2331.00
2023-05-14T07:48:06.536Z,2275.00
2023-05-14T07:49:06.479Z,2226.00
2023-05-14T07:50:06.540Z,2154.00
2023-05-14T07:51:06.518Z,2039.00
2023-05-14T07:52:06.515Z,1884.00
2023-05-14T07:53:05.585Z,1926.00
2023-05-14T07:54:06.604Z,1916.00
2023-05-14T07:55:05.605Z,1828.00
2023-05-14T07:56:06.654Z,1873.00
2023-05-14T07:57:06.653Z,1800.00
2023-05-14T07:58:05.725Z,1799.00
2023-05-14T07:59:06.778Z,1867.00
2023-05-14T08:00:06.824Z,1815.00
2023-05-14T08:01:05.832Z,1784.00
2023-05-14T08:02:06.906Z,1836.00
2023-05-14T08:03:06.013Z,1775.00
2023-05-14T08:04:05.933Z,1732.00
2023-05-14T08:05:05.876Z,1655.00
2023-05-14T08:06:06.844Z,1575.00
2023-05-14T08:07:05.879Z,1493.00
2023-05-14T08:08:05.892Z,1553.00
2023-05-14T08:09:06.940Z,1490.00
2023-05-14T08:10:06.940Z,1460.00
2023-05-14T08:11:07.048Z,1432.00
2023-05-14T08:12:06.971Z,1299.00
2023-05-14T08:13:06.011Z,1377.00
2023-05-14T08:14:06.079Z,1359.00
2023-05-14T08:15:07.098Z,1372.00
2023-05-14T08:16:07.149Z,1225.00
2023-05-14T08:17:06.258Z,1134.00
2023-05-14T08:18:07.190Z,1118.00
2023-05-14T08:19:07.199Z,1191.00
2023-05-14T08:20:06.185Z,1145.00
2023-05-14T08:21:06.209Z,1194.00
2023-05-14T08:22:07.216Z,1102.00
2023-05-14T08:23:07.268Z,1144.00
2023-05-14T08:24:06.237Z,1412.00
2023-05-14T08:25:06.329Z,1550.00
2023-05-14T08:26:07.353Z,1418.00
2023-05-14T08:27:07.401Z,1410.00
2023-05-14T08:28:06.401Z,1314.00
2023-05-14T08:29:09.305Z,1403.00
2023-05-14T08:30:06.362Z,1358.00
2023-05-14T08:31:06.422Z,1411.00
2023-05-14T08:32:19.277Z,1404.00
2023-05-14T08:33:07.435Z,1260.00
2023-05-14T08:34:06.319Z,1221.00
2023-05-14T08:35:06.335Z,1302.00
2023-05-14T08:36:07.333Z,1222.00
2023-05-14T08:37:07.304Z,1137.00
2023-05-14T08:38:06.303Z,1024.00
2023-05-14T08:39:06.339Z,998.00
2023-05-14T08:40:06.273Z,971.00
2023-05-14T08:41:07.574Z,817.00
2023-05-14T08:42:06.277Z,875.00
2023-05-14T08:43:07.282Z,922.00
2023-05-14T08:44:06.261Z,840.00
2023-05-14T08:45:06.314Z,829.00
2023-05-14T08:46:06.333Z,790.00
2023-05-14T08:47:07.389Z,826.00
2023-05-14T08:48:07.504Z,797.00
2023-05-14T08:49:06.458Z,731.00
2023-05-14T08:50:06.477Z,929.00
2023-05-14T08:51:07.524Z,898.00
2023-05-14T08:52:06.464Z,985.00
2023-05-14T08:53:07.511Z,1029.00
2023-05-14T08:54:06.527Z,1087.00
2023-05-14T08:55:07.493Z,1066.00
2023-05-14T08:56:06.488Z,970.00
2023-05-14T08:57:07.539Z,897.00
2023-05-14T08:58:06.544Z,919.00
2023-05-14T08:59:07.560Z,1146.00
2023-05-14T09:00:06.544Z,1204.00
2023-05-14T09:01:06.586Z,983.00
2023-05-14T09:02:07.856Z,966.00
2023-05-14T09:03:07.967Z,1014.00
2023-05-14T09:04:06.786Z,891.00
2023-05-14T09:05:07.737Z,999.00
2023-05-14T09:06:06.796Z,881.00
2023-05-14T09:07:07.872Z,699.00
2023-05-14T09:08:07.894Z,719.00
2023-05-14T09:09:07.997Z,600.00
2023-05-14T09:10:07.979Z,562.00
2023-05-14T09:11:07.041Z,512.00
2023-05-14T09:12:08.088Z,544.00
2023-05-14T09:13:07.163Z,527.00
2023-05-14T09:14:07.221Z,560.00
2023-05-14T09:15:07.258Z,595.00
2023-05-14T09:16:08.309Z,629.00
2023-05-14T09:17:08.257Z,633.00
2023-05-14T09:18:08.339Z,568.00
2023-05-14T09:19:08.434Z,544.00
2023-05-14T09:20:08.395Z,403.00
2023-05-14T09:21:07.395Z,451.00
2023-05-14T09:22:08.568Z,540.00
2023-05-14T09:23:07.489Z,571.00
2023-05-14T09:24:08.522Z,513.00
2023-05-14T09:25:08.621Z,532.00
2023-05-14T09:26:07.652Z,584.00
2023-05-14T09:27:07.692Z,489.00
2023-05-14T09:28:07.727Z,514.00
2023-05-14T09:29:08.782Z,462.00
2023-05-14T09:30:08.818Z,499.00
2023-05-14T09:31:08.910Z,490.00
2023-05-14T09:32:07.945Z,400.00
2023-05-14T09:33:08.029Z,400.00
2023-05-14T09:34:07.937Z,400.00
2023-05-14T09:35:08.955Z,400.00
2023-05-14T09:36:07.954Z,442.00
2023-05-14T09:37:09.015Z,412.00
2023-05-14T09:38:08.007Z,453.00
2023-05-14T09:39:08.022Z,520.00
2023-05-14T09:40:08.037Z,497.00
2023-05-14T09:41:08.060Z,473.00
2023-05-14T09:42:08.177Z,495.00
2023-05-14T09:43:09.163Z,524.00
2023-05-14T09:44:09.182Z,524.00
2023-05-14T09:45:09.254Z,592.00
2023-05-14T09:46:09.250Z,571.00
2023-05-14T09:47:09.319Z,493.00
2023-05-14T09:48:09.425Z,486.00
2023-05-14T09:49:08.341Z,520.00
2023-05-14T09:50:08.417Z,546.00
2023-05-14T09:51:08.401Z,591.00
2023-05-14T09:52:09.502Z,546.00
2023-05-14T09:53:09.505Z,548.00
2023-05-14T09:54:09.538Z,500.00
2023-05-14T09:55:09.589Z,560.00
2023-05-14T09:56:08.626Z,488.00
2023-05-14T09:57:08.609Z,500.00
2023-05-14T09:58:08.623Z,511.00
2023-05-14T09:59:09.673Z,514.00
2023-05-14T10:00:09.701Z,543.00
2023-05-14T10:01:08.845Z,492.00
2023-05-14T10:02:08.775Z,507.00
2023-05-14T10:03:08.819Z,535.00
2023-05-14T10:04:09.864Z,556.00
2023-05-14T10:05:08.868Z,549.00
2023-05-14T10:06:09.901Z,587.00
2023-05-14T10:07:08.879Z,545.00
2023-05-14T10:08:09.949Z,491.00
2023-05-14T10:09:08.944Z,502.00
2023-05-14T10:10:09.999Z,494.00
2023-05-14T10:11:10.031Z,475.00
2023-05-14T10:12:10.046Z,520.00
2023-05-14T10:13:10.084Z,559.00
2023-05-14T10:14:10.132Z,579.00
2023-05-14T10:15:09.159Z,605.00
2023-05-14T10:16:10.211Z,557.00
2023-05-14T10:17:10.434Z,593.00
2023-05-14T10:18:09.412Z,614.00
2023-05-14T10:19:10.425Z,637.00
2023-05-14T10:20:09.408Z,624.00
2023-05-14T10:21:10.417Z,633.00
2023-05-14T10:22:09.429Z,576.00
2023-05-14T10:23:09.450Z,624.00
2023-05-14T10:24:09.549Z,632.00
2023-05-14T10:25:10.530Z,860.00
2023-05-14T10:26:09.527Z,935.00
2023-05-14T10:27:10.559Z,878.00
2023-05-14T10:28:09.613Z,772.00
2023-05-14T10:29:09.639Z,747.00
2023-05-14T10:30:09.686Z,722.00
2023-05-14T10:31:10.692Z,668.00
2023-05-14T10:32:10.686Z,601.00
2023-05-14T10:33:10.827Z,580.00
2023-05-14T10:34:10.830Z,637.00
2023-05-14T10:35:10.859Z,725.00
2023-05-14T10:36:09.937Z,802.00
2023-05-14T10:37:09.936Z,831.00
2023-05-14T10:38:09.956Z,773.00
2023-05-14T10:39:10.977Z,907.00
2023-05-14T10:40:11.039Z,1002.00
2023-05-14T10:41:11.102Z,970.00
2023-05-14T10:42:10.097Z,1143.00
2023-05-14T10:43:10.130Z,1187.00
2023-05-14T10:44:10.198Z,1068.00
2023-05-14T10:45:11.189Z,977.00
2023-05-14T10:46:10.242Z,1053.00
2023-05-14T10:47:10.295Z,1189.00
2023-05-14T10:48:11.262Z,1510.00
2023-05-14T10:49:10.318Z,1570.00
2023-05-14T10:50:11.327Z,1462.00
2023-05-14T10:51:10.399Z,1770.00
2023-05-14T10:52:10.388Z,1852.00
2023-05-14T10:53:11.477Z,1667.00
2023-05-14T10:54:10.466Z,1483.00
2023-05-14T10:55:10.528Z,1584.00
2023-05-14T10:56:11.568Z,1770.00
2023-05-14T10:57:11.581Z,1878.00
2023-05-14T10:58:11.618Z,1932.00
2023-05-14T10:59:10.695Z,2007.00
2023-05-14T11:00:10.691Z,1639.00
2023-05-14T11:01:11.692Z,1375.00
2023-05-14T11:02:11.761Z,1157.00
2023-05-14T11:03:11.740Z,1115.00
2023-05-14T11:04:11.799Z,1000.00
2023-05-14T11:05:10.816Z,684.00
2023-05-14T11:06:11.797Z,1044.00
2023-05-14T11:07:11.830Z,994.00
2023-05-14T11:08:11.887Z,1055.00
2023-05-14T11:09:11.955Z,1245.00
2023-05-14T11:10:11.985Z,1229.00
2023-05-14T11:11:12.105Z,1095.00
2023-05-14T11:12:11.076Z,1049.00
2023-05-14T11:13:12.113Z,1309.00
2023-05-14T11:14:12.164Z,1413.00
2023-05-14T11:15:12.135Z,1250.00
2023-05-14T11:16:22.740Z,1087.00
2023-05-14T11:17:12.390Z,1089.00
2023-05-14T11:18:12.269Z,1109.00
2023-05-14T11:19:11.389Z,1153.00
2023-05-14T11:20:11.158Z,1170.00
2023-05-14T11:21:12.170Z,1182.00
2023-05-14T11:22:12.186Z,1142.00
2023-05-14T11:23:11.128Z,1270.00
2023-05-14T11:24:12.106Z,1064.00
2023-05-14T11:25:12.099Z,1038.00
2023-05-14T11:26:12.158Z,1016.00
2023-05-14T11:27:12.096Z,959.00
2023-05-14T11:28:12.124Z,1041.00
2023-05-14T11:29:12.086Z,970.00
2023-05-14T11:30:12.065Z,817.00
2023-05-14T11:31:12.126Z,829.00
2023-05-14T11:32:11.129Z,708.00
2023-05-14T11:33:12.153Z,645.00
2023-05-14T11:34:11.047Z,715.00
2023-05-14T11:35:12.049Z,689.00
2023-05-14T11:36:12.043Z,925.00
2023-05-14T11:37:11.135Z,1050.00
2023-05-14T11:38:11.064Z,1138.00
2023-05-14T11:39:12.024Z,1169.00
2023-05-14T11:40:12.005Z,1301.00
2023-05-14T11:41:11.050Z,1230.00
2023-05-14T11:42:11.999Z,1300.00
2023-05-14T11:43:10.987Z,1239.00
2023-05-14T11:44:12.039Z,1122.00
2023-05-14T11:45:11.995Z,1099.00
2023-05-14T11:46:12.000Z,1380.00
2023-05-14T11:47:11.025Z,1427.00
2023-05-14T11:48:12.012Z,1324.00
2023-05-14T11:49:10.969Z,1302.00
2023-05-14T11:50:11.028Z,973.00
2023-05-14T11:51:12.065Z,867.00
2023-05-14T11:52:11.101Z,953.00
2023-05-14T11:53:12.155Z,689.00
2023-05-14T11:54:12.177Z,666.00
2023-05-14T11:55:12.191Z,848.00
2023-05-14T11:56:11.204Z,779.00
2023-05-14T11:57:12.248Z,725.00
2023-05-14T11:58:12.221Z,960.00
2023-05-14T11:59:11.307Z,980.00
2023-05-14T12:00:12.269Z,751.00
2023-05-14T12:01:12.311Z,824.00
2023-05-14T12:02:12.377Z,770.00
2023-05-14T12:03:11.526Z,948.00
2023-05-14T12:04:11.571Z,1062.00
2023-05-14T12:05:11.449Z,1098.00
2023-05-14T12:06:12.487Z,1315.00
2023-05-14T12:07:12.571Z,1536.00
2023-05-14T12:08:11.547Z,1603.00
2023-05-14T12:09:12.640Z,1588.00
2023-05-14T12:10:11.624Z,1615.00
2023-05-14T12:11:12.670Z,1522.00